sensor_id;sensor_type;location;lat;lon;timestamp;temperature;humidity
9971;DHT22;5026;51.494;11.974;2023-04-03T00:00:49;1.30;99.90
9971;DHT22;5026;51.494;11.974;2023-04-03T00:03:16;1.20;99.90
9971;DHT22;5026;51.494;11.974;2023-04-03T00:05:43;1.20;99.90
9971;DHT22;5026;51.494;11.974;2023-04-03T00:08:10;1.10;99.90
9971;DHT22;5026;51.494;11.974;2023-04-03T00:10:40;1.10;99.90
9971;DHT22;5026;51.494;11.974;2023-04-03T00:13:07;1.10;99.90
9971;DHT22;5026;51.494;11.974;2023-04-03T00:15:35;1.10;99.90
9971;DHT22;5026;51.494;11.974;2023-04-03T00:18:03;1.10;99.90
9971;DHT22;5026;51.494;11.974;2023-04-03T00:20:30;1.10;99.90
9971;DHT22;5026;51.494;11.974;2023-04-03T00:22:57;1.10;99.90
9971;DHT22;5026;51.494;11.974;2023-04-03T00:25:24;1.10;99.90
9971;DHT22;5026;51.494;11.974;2023-04-03T00:27:53;1.10;99.90
9971;DHT22;5026;51.494;11.974;2023-04-03T00:30:22;1.10;99.90
9971;DHT22;5026;51.494;11.974;2023-04-03T00:32:49;1.10;99.90
9971;DHT22;5026;51.494;11.974;2023-04-03T00:35:17;1.00;99.90
9971;DHT22;5026;51.494;11.974;2023-04-03T00:37:45;1.00;99.90
9971;DHT22;5026;51.494;11.974;2023-04-03T00:40:14;0.90;99.90
9971;DHT22;5026;51.494;11.974;2023-04-03T00:42:42;0.90;99.90
9971;DHT22;5026;51.494;11.974;2023-04-03T00:45:33;0.90;99.90
9971;DHT22;5026;51.494;11.974;2023-04-03T00:48:01;0.80;99.90
9971;DHT22;5026;51.494;11.974;2023-04-03T00:50:32;0.80;99.90
9971;DHT22;5026;51.494;11.974;2023-04-03T00:53:00;0.80;99.90
9971;DHT22;5026;51.494;11.974;2023-04-03T00:55:28;0.70;99.90
9971;DHT22;5026;51.494;11.974;2023-04-03T00:57:56;0.70;99.90
9971;DHT22;5026;51.494;11.974;2023-04-03T01:00:23;0.70;99.90
9971;DHT22;5026;51.494;11.974;2023-04-03T01:02:52;0.70;99.90
9971;DHT22;5026;51.494;11.974;2023-04-03T01:05:20;0.70;99.90
9971;DHT22;5026;51.494;11.974;2023-04-03T01:07:49;0.70;99.90
9971;DHT22;5026;51.494;11.974;2023-04-03T01:10:17;0.70;99.90
9971;DHT22;5026;51.494;11.974;2023-04-03T01:12:47;0.70;99.90
9971;DHT22;5026;51.494;11.974;2023-04-03T01:15:17;0.70;99.90
9971;DHT22;5026;51.494;11.974;2023-04-03T01:17:46;0.60;99.90
9971;DHT22;5026;51.494;11.974;2023-04-03T01:20:45;0.60;99.90
9971;DHT22;5026;51.494;11.974;2023-04-03T01:23:32;0.60;99.90
9971;DHT22;5026;51.494;11.974;2023-04-03T01:26:03;0.60;99.90
9971;DHT22;5026;51.494;11.974;2023-04-03T01:28:32;0.50;99.90
9971;DHT22;5026;51.494;11.974;2023-04-03T01:31:03;0.40;99.90
9971;DHT22;5026;51.494;11.974;2023-04-03T01:33:33;0.40;99.90
9971;DHT22;5026;51.494;11.974;2023-04-03T01:36:00;0.40;99.90
9971;DHT22;5026;51.494;11.974;2023-04-03T01:38:27;0.30;99.90
9971;DHT22;5026;51.494;11.974;2023-04-03T01:40:54;0.30;99.90
9971;DHT22;5026;51.494;11.974;2023-04-03T01:43:21;0.30;99.90
9971;DHT22;5026;51.494;11.974;2023-04-03T01:45:48;0.30;99.90
9971;DHT22;5026;51.494;11.974;2023-04-03T01:48:15;0.40;99.90
9971;DHT22;5026;51.494;11.974;2023-04-03T01:50:44;0.30;99.90
9971;DHT22;5026;51.494;11.974;2023-04-03T01:53:11;0.50;99.90
9971;DHT22;5026;51.494;11.974;2023-04-03T01:55:38;0.20;99.90
9971;DHT22;5026;51.494;11.974;2023-04-03T01:58:05;0.20;99.90
9971;DHT22;5026;51.494;11.974;2023-04-03T02:00:32;0.10;99.90
9971;DHT22;5026;51.494;11.974;2023-04-03T02:02:59;0.10;99.90
9971;DHT22;5026;51.494;11.974;2023-04-03T02:05:26;0.10;99.90
9971;DHT22;5026;51.494;11.974;2023-04-03T02:07:54;0.10;99.90
9971;DHT22;5026;51.494;11.974;2023-04-03T02:10:22;0.10;99.90
9971;DHT22;5026;51.494;11.974;2023-04-03T02:12:48;0.00;99.90
9971;DHT22;5026;51.494;11.974;2023-04-03T02:15:16;0.00;99.90
9971;DHT22;5026;51.494;11.974;2023-04-03T02:17:43;0.00;99.90
9971;DHT22;5026;51.494;11.974;2023-04-03T02:20:10;0.00;99.90
9971;DHT22;5026;51.494;11.974;2023-04-03T02:22:38;0.00;99.90
9971;DHT22;5026;51.494;11.974;2023-04-03T02:25:07;0.00;99.90
9971;DHT22;5026;51.494;11.974;2023-04-03T02:27:35;-0.10;99.90
9971;DHT22;5026;51.494;11.974;2023-04-03T02:30:02;-0.10;99.90
9971;DHT22;5026;51.494;11.974;2023-04-03T02:32:29;-0.10;99.90
9971;DHT22;5026;51.494;11.974;2023-04-03T02:34:55;-0.10;99.90
9971;DHT22;5026;51.494;11.974;2023-04-03T02:37:22;-0.10;99.90
9971;DHT22;5026;51.494;11.974;2023-04-03T02:39:50;-0.20;99.90
9971;DHT22;5026;51.494;11.974;2023-04-03T02:42:18;-0.10;99.90
9971;DHT22;5026;51.494;11.974;2023-04-03T02:44:45;-0.30;99.90
9971;DHT22;5026;51.494;11.974;2023-04-03T02:47:12;-0.30;99.90
9971;DHT22;5026;51.494;11.974;2023-04-03T02:49:39;-0.30;99.90
9971;DHT22;5026;51.494;11.974;2023-04-03T02:52:06;-0.30;99.90
9971;DHT22;5026;51.494;11.974;2023-04-03T02:54:32;-0.30;99.90
9971;DHT22;5026;51.494;11.974;2023-04-03T02:56:59;-0.30;99.90
9971;DHT22;5026;51.494;11.974;2023-04-03T02:59:28;-0.40;99.90
9971;DHT22;5026;51.494;11.974;2023-04-03T03:01:55;-0.40;99.90
9971;DHT22;5026;51.494;11.974;2023-04-03T03:04:22;-0.40;99.90
9971;DHT22;5026;51.494;11.974;2023-04-03T03:06:49;-0.40;99.90
9971;DHT22;5026;51.494;11.974;2023-04-03T03:09:16;-2.10;99.90
9971;DHT22;5026;51.494;11.974;2023-04-03T03:11:43;-0.50;99.90
9971;DHT22;5026;51.494;11.974;2023-04-03T03:14:09;-0.40;99.90
9971;DHT22;5026;51.494;11.974;2023-04-03T03:16:38;-0.50;99.90
9971;DHT22;5026;51.494;11.974;2023-04-03T03:19:05;-0.50;99.90
9971;DHT22;5026;51.494;11.974;2023-04-03T03:21:32;-0.50;99.90
9971;DHT22;5026;51.494;11.974;2023-04-03T03:23:59;-0.50;99.90
9971;DHT22;5026;51.494;11.974;2023-04-03T03:26:27;-0.50;99.90
9971;DHT22;5026;51.494;11.974;2023-04-03T03:28:54;-0.50;99.90
9971;DHT22;5026;51.494;11.974;2023-04-03T03:31:21;-0.60;99.90
9971;DHT22;5026;51.494;11.974;2023-04-03T03:33:49;-0.60;99.90
9971;DHT22;5026;51.494;11.974;2023-04-03T03:36:16;-0.60;99.90
9971;DHT22;5026;51.494;11.974;2023-04-03T03:38:43;-0.60;99.90
9971;DHT22;5026;51.494;11.974;2023-04-03T03:41:10;-0.60;99.90
9971;DHT22;5026;51.494;11.974;2023-04-03T03:43:37;-0.60;99.90
9971;DHT22;5026;51.494;11.974;2023-04-03T03:46:03;-0.70;99.90
9971;DHT22;5026;51.494;11.974;2023-04-03T03:48:30;-0.70;99.90
9971;DHT22;5026;51.494;11.974;2023-04-03T03:50:59;-0.70;99.90
9971;DHT22;5026;51.494;11.974;2023-04-03T03:53:26;-0.70;99.90
9971;DHT22;5026;51.494;11.974;2023-04-03T03:55:53;-0.70;99.90
9971;DHT22;5026;51.494;11.974;2023-04-03T03:58:20;-0.80;99.90
9971;DHT22;5026;51.494;11.974;2023-04-03T04:00:47;-0.80;99.90
9971;DHT22;5026;51.494;11.974;2023-04-03T04:03:14;-0.80;99.90
9971;DHT22;5026;51.494;11.974;2023-04-03T04:05:41;-0.80;99.90
9971;DHT22;5026;51.494;11.974;2023-04-03T04:08:09;0.40;99.90
9971;DHT22;5026;51.494;11.974;2023-04-03T04:10:37;-0.90;99.90
9971;DHT22;5026;51.494;11.974;2023-04-03T04:13:04;-0.90;99.90
9971;DHT22;5026;51.494;11.974;2023-04-03T04:15:31;-0.90;99.90
9971;DHT22;5026;51.494;11.974;2023-04-03T04:17:58;-0.90;99.90
9971;DHT22;5026;51.494;11.974;2023-04-03T04:20:25;-0.90;99.90
9971;DHT22;5026;51.494;11.974;2023-04-03T04:22:52;-0.90;99.90
9971;DHT22;5026;51.494;11.974;2023-04-03T04:25:20;-1.00;99.90
9971;DHT22;5026;51.494;11.974;2023-04-03T04:27:47;-1.00;99.90
9971;DHT22;5026;51.494;11.974;2023-04-03T04:30:14;-1.00;99.90
9971;DHT22;5026;51.494;11.974;2023-04-03T04:32:41;-0.90;99.90
9971;DHT22;5026;51.494;11.974;2023-04-03T04:35:08;-0.90;99.90
9971;DHT22;5026;51.494;11.974;2023-04-03T04:37:35;-1.00;99.90
9971;DHT22;5026;51.494;11.974;2023-04-03T04:40:02;-1.00;99.90
9971;DHT22;5026;51.494;11.974;2023-04-03T04:42:31;-1.00;99.90
9971;DHT22;5026;51.494;11.974;2023-04-03T04:44:57;-1.00;99.90
9971;DHT22;5026;51.494;11.974;2023-04-03T04:47:24;-1.00;99.90
9971;DHT22;5026;51.494;11.974;2023-04-03T04:49:51;-1.00;99.90
9971;DHT22;5026;51.494;11.974;2023-04-03T04:52:18;-1.00;99.90
9971;DHT22;5026;51.494;11.974;2023-04-03T04:54:45;-1.00;99.90
9971;DHT22;5026;51.494;11.974;2023-04-03T04:57:12;-0.90;99.90
9971;DHT22;5026;51.494;11.974;2023-04-03T04:59:40;-1.00;99.90
9971;DHT22;5026;51.494;11.974;2023-04-03T05:02:07;-1.00;99.90
9971;DHT22;5026;51.494;11.974;2023-04-03T05:04:34;-1.00;99.90
9971;DHT22;5026;51.494;11.974;2023-04-03T05:07:01;-0.90;99.90
9971;DHT22;5026;51.494;11.974;2023-04-03T05:09:28;-0.90;99.90
9971;DHT22;5026;51.494;11.974;2023-04-03T05:11:55;-0.90;99.90
9971;DHT22;5026;51.494;11.974;2023-04-03T05:14:22;-0.90;99.90
9971;DHT22;5026;51.494;11.974;2023-04-03T05:16:51;-0.90;99.90
9971;DHT22;5026;51.494;11.974;2023-04-03T05:19:19;-0.90;99.90
9971;DHT22;5026;51.494;11.974;2023-04-03T05:21:46;-0.90;99.90
9971;DHT22;5026;51.494;11.974;2023-04-03T05:24:13;-0.80;99.90
9971;DHT22;5026;51.494;11.974;2023-04-03T05:26:41;-0.80;99.90
9971;DHT22;5026;51.494;11.974;2023-04-03T05:29:08;-0.80;99.90
9971;DHT22;5026;51.494;11.974;2023-04-03T05:31:35;-0.70;99.90
9971;DHT22;5026;51.494;11.974;2023-04-03T05:34:04;-0.70;99.90
9971;DHT22;5026;51.494;11.974;2023-04-03T05:36:31;-0.60;99.90
9971;DHT22;5026;51.494;11.974;2023-04-03T05:38:58;-0.60;99.90
9971;DHT22;5026;51.494;11.974;2023-04-03T05:41:25;-0.50;99.90
9971;DHT22;5026;51.494;11.974;2023-04-03T05:43:52;-0.50;99.90
9971;DHT22;5026;51.494;11.974;2023-04-03T05:46:19;-0.50;99.90
9971;DHT22;5026;51.494;11.974;2023-04-03T05:48:47;-0.50;99.90
9971;DHT22;5026;51.494;11.974;2023-04-03T05:51:18;-0.40;99.90
9971;DHT22;5026;51.494;11.974;2023-04-03T05:53:46;-0.40;99.90
9971;DHT22;5026;51.494;11.974;2023-04-03T05:56:14;-0.30;99.90
9971;DHT22;5026;51.494;11.974;2023-04-03T05:58:41;-0.10;99.90
9971;DHT22;5026;51.494;11.974;2023-04-03T06:01:08;-0.20;99.90
9971;DHT22;5026;51.494;11.974;2023-04-03T06:03:35;-0.10;99.90
9971;DHT22;5026;51.494;11.974;2023-04-03T06:06:04;0.10;99.90
9971;DHT22;5026;51.494;11.974;2023-04-03T06:08:32;0.20;99.90
9971;DHT22;5026;51.494;11.974;2023-04-03T06:11:00;1.00;99.90
9971;DHT22;5026;51.494;11.974;2023-04-03T06:13:27;4.00;99.40
9971;DHT22;5026;51.494;11.974;2023-04-03T06:15:54;5.40;96.40
9971;DHT22;5026;51.494;11.974;2023-04-03T06:18:22;7.50;93.80
9971;DHT22;5026;51.494;11.974;2023-04-03T06:20:49;7.60;93.80
9971;DHT22;5026;51.494;11.974;2023-04-03T06:23:16;7.20;92.70
9971;DHT22;5026;51.494;11.974;2023-04-03T06:25:44;7.80;92.70
9971;DHT22;5026;51.494;11.974;2023-04-03T06:28:12;8.70;91.10
9971;DHT22;5026;51.494;11.974;2023-04-03T06:30:39;8.80;91.20
9971;DHT22;5026;51.494;11.974;2023-04-03T06:33:06;10.40;89.90
9971;DHT22;5026;51.494;11.974;2023-04-03T06:35:33;9.90;87.30
9971;DHT22;5026;51.494;11.974;2023-04-03T06:38:01;11.50;83.20
9971;DHT22;5026;51.494;11.974;2023-04-03T06:40:29;11.00;78.90
9971;DHT22;5026;51.494;11.974;2023-04-03T06:42:58;11.10;81.10
9971;DHT22;5026;51.494;11.974;2023-04-03T06:45:25;12.30;80.20
9971;DHT22;5026;51.494;11.974;2023-04-03T06:47:53;13.60;75.90
9971;DHT22;5026;51.494;11.974;2023-04-03T06:50:20;13.70;70.50
9971;DHT22;5026;51.494;11.974;2023-04-03T06:52:47;14.20;69.70
9971;DHT22;5026;51.494;11.974;2023-04-03T06:55:14;15.40;66.80
9971;DHT22;5026;51.494;11.974;2023-04-03T06:57:41;15.60;64.90
9971;DHT22;5026;51.494;11.974;2023-04-03T07:00:11;15.60;65.20
9971;DHT22;5026;51.494;11.974;2023-04-03T07:02:38;16.50;63.60
9971;DHT22;5026;51.494;11.974;2023-04-03T07:05:06;16.20;61.60
9971;DHT22;5026;51.494;11.974;2023-04-03T07:07:34;12.20;63.60
9971;DHT22;5026;51.494;11.974;2023-04-03T07:10:01;14.30;64.00
9971;DHT22;5026;51.494;11.974;2023-04-03T07:12:28;15.90;63.40
9971;DHT22;5026;51.494;11.974;2023-04-03T07:14:55;15.00;63.10
9971;DHT22;5026;51.494;11.974;2023-04-03T07:17:24;14.40;63.10
9971;DHT22;5026;51.494;11.974;2023-04-03T07:19:51;16.50;62.50
9971;DHT22;5026;51.494;11.974;2023-04-03T07:22:18;18.30;60.30
9971;DHT22;5026;51.494;11.974;2023-04-03T07:24:45;17.90;59.90
9971;DHT22;5026;51.494;11.974;2023-04-03T07:27:12;13.30;60.40
9971;DHT22;5026;51.494;11.974;2023-04-03T07:29:39;14.00;62.10
9971;DHT22;5026;51.494;11.974;2023-04-03T07:32:06;14.50;61.10
9971;DHT22;5026;51.494;11.974;2023-04-03T07:34:35;15.10;60.80
9971;DHT22;5026;51.494;11.974;2023-04-03T07:37:02;12.50;61.90
9971;DHT22;5026;51.494;11.974;2023-04-03T07:39:30;11.50;61.30
9971;DHT22;5026;51.494;11.974;2023-04-03T07:41:57;10.00;62.80
9971;DHT22;5026;51.494;11.974;2023-04-03T07:44:25;6.20;69.20
9971;DHT22;5026;51.494;11.974;2023-04-03T07:46:52;3.60;84.30
9971;DHT22;5026;51.494;11.974;2023-04-03T07:49:21;3.50;85.70
9971;DHT22;5026;51.494;11.974;2023-04-03T07:51:50;4.50;86.00
9971;DHT22;5026;51.494;11.974;2023-04-03T07:54:17;5.80;86.30
9971;DHT22;5026;51.494;11.974;2023-04-03T07:56:43;8.10;80.20
9971;DHT22;5026;51.494;11.974;2023-04-03T07:59:11;9.10;78.00
9971;DHT22;5026;51.494;11.974;2023-04-03T08:01:37;12.10;73.40
9971;DHT22;5026;51.494;11.974;2023-04-03T08:04:05;12.50;69.50
9971;DHT22;5026;51.494;11.974;2023-04-03T08:06:32;14.20;65.60
9971;DHT22;5026;51.494;11.974;2023-04-03T08:09:02;10.20;66.90
9971;DHT22;5026;51.494;11.974;2023-04-03T08:11:30;8.00;69.80
9971;DHT22;5026;51.494;11.974;2023-04-03T08:13:57;8.20;70.60
9971;DHT22;5026;51.494;11.974;2023-04-03T08:16:24;10.30;69.60
9971;DHT22;5026;51.494;11.974;2023-04-03T08:18:53;9.70;65.10
9971;DHT22;5026;51.494;11.974;2023-04-03T08:21:20;8.20;74.20
9971;DHT22;5026;51.494;11.974;2023-04-03T08:23:48;9.00;65.90
9971;DHT22;5026;51.494;11.974;2023-04-03T08:26:19;11.50;67.10
9971;DHT22;5026;51.494;11.974;2023-04-03T08:28:47;9.50;64.20
9971;DHT22;5026;51.494;11.974;2023-04-03T08:31:17;10.60;64.40
9971;DHT22;5026;51.494;11.974;2023-04-03T08:33:44;8.70;68.30
9971;DHT22;5026;51.494;11.974;2023-04-03T08:36:17;9.10;68.70
9971;DHT22;5026;51.494;11.974;2023-04-03T08:38:45;11.50;67.30
9971;DHT22;5026;51.494;11.974;2023-04-03T08:41:18;10.30;66.50
9971;DHT22;5026;51.494;11.974;2023-04-03T08:43:56;10.70;63.60
9971;DHT22;5026;51.494;11.974;2023-04-03T08:46:35;6.60;68.40
9971;DHT22;5026;51.494;11.974;2023-04-03T08:49:07;5.60;71.80
9971;DHT22;5026;51.494;11.974;2023-04-03T08:51:39;4.60;73.10
9971;DHT22;5026;51.494;11.974;2023-04-03T08:54:20;5.70;75.80
9971;DHT22;5026;51.494;11.974;2023-04-03T08:56:51;5.30;73.60
9971;DHT22;5026;51.494;11.974;2023-04-03T08:59:24;4.40;73.50
9971;DHT22;5026;51.494;11.974;2023-04-03T09:01:53;4.20;73.80
9971;DHT22;5026;51.494;11.974;2023-04-03T09:04:21;4.90;74.20
9971;DHT22;5026;51.494;11.974;2023-04-03T09:06:51;5.50;74.80
9971;DHT22;5026;51.494;11.974;2023-04-03T09:09:30;5.20;75.70
9971;DHT22;5026;51.494;11.974;2023-04-03T09:12:05;5.30;74.90
9971;DHT22;5026;51.494;11.974;2023-04-03T09:14:39;5.60;73.10
9971;DHT22;5026;51.494;11.974;2023-04-03T09:17:13;5.20;72.90
9971;DHT22;5026;51.494;11.974;2023-04-03T09:19:48;5.30;73.50
9971;DHT22;5026;51.494;11.974;2023-04-03T09:22:21;6.80;72.70
9971;DHT22;5026;51.494;11.974;2023-04-03T09:24:55;5.70;72.90
9971;DHT22;5026;51.494;11.974;2023-04-03T09:27:25;5.60;73.20
9971;DHT22;5026;51.494;11.974;2023-04-03T09:29:54;4.60;73.60
9971;DHT22;5026;51.494;11.974;2023-04-03T09:32:26;4.70;73.00
9971;DHT22;5026;51.494;11.974;2023-04-03T09:34:55;5.50;73.70
9971;DHT22;5026;51.494;11.974;2023-04-03T09:37:40;4.70;73.60
9971;DHT22;5026;51.494;11.974;2023-04-03T09:40:30;4.40;72.50
9971;DHT22;5026;51.494;11.974;2023-04-03T09:43:04;3.50;72.00
9971;DHT22;5026;51.494;11.974;2023-04-03T09:45:46;4.40;70.60
9971;DHT22;5026;51.494;11.974;2023-04-03T09:48:16;5.20;71.60
9971;DHT22;5026;51.494;11.974;2023-04-03T09:50:58;5.50;72.60
9971;DHT22;5026;51.494;11.974;2023-04-03T09:53:35;4.90;70.50
9971;DHT22;5026;51.494;11.974;2023-04-03T09:56:09;4.60;71.60
9971;DHT22;5026;51.494;11.974;2023-04-03T09:58:48;5.20;72.60
9971;DHT22;5026;51.494;11.974;2023-04-03T10:01:23;4.90;72.70
9971;DHT22;5026;51.494;11.974;2023-04-03T10:04:04;4.90;71.00
9971;DHT22;5026;51.494;11.974;2023-04-03T10:06:32;4.90;70.70
9971;DHT22;5026;51.494;11.974;2023-04-03T10:09:03;5.10;71.60
9971;DHT22;5026;51.494;11.974;2023-04-03T10:11:30;4.90;71.90
9971;DHT22;5026;51.494;11.974;2023-04-03T10:14:01;5.30;71.20
9971;DHT22;5026;51.494;11.974;2023-04-03T10:16:35;5.20;69.20
9971;DHT22;5026;51.494;11.974;2023-04-03T10:19:32;5.00;70.70
9971;DHT22;5026;51.494;11.974;2023-04-03T10:22:04;4.70;73.00
9971;DHT22;5026;51.494;11.974;2023-04-03T10:24:39;4.80;71.40
9971;DHT22;5026;51.494;11.974;2023-04-03T10:27:15;5.00;72.20
9971;DHT22;5026;51.494;11.974;2023-04-03T10:29:51;5.00;70.00
9971;DHT22;5026;51.494;11.974;2023-04-03T10:32:44;4.60;71.60
9971;DHT22;5026;51.494;11.974;2023-04-03T10:35:30;5.00;72.00
9971;DHT22;5026;51.494;11.974;2023-04-03T10:38:04;5.00;71.40
9971;DHT22;5026;51.494;11.974;2023-04-03T10:40:41;5.20;72.50
9971;DHT22;5026;51.494;11.974;2023-04-03T10:43:19;5.20;72.80
9971;DHT22;5026;51.494;11.974;2023-04-03T10:45:57;5.30;71.10
9971;DHT22;5026;51.494;11.974;2023-04-03T10:48:37;5.20;70.30
9971;DHT22;5026;51.494;11.974;2023-04-03T10:51:15;5.00;69.80
9971;DHT22;5026;51.494;11.974;2023-04-03T10:53:50;5.30;70.40
9971;DHT22;5026;51.494;11.974;2023-04-03T10:56:23;6.00;71.40
9971;DHT22;5026;51.494;11.974;2023-04-03T10:58:56;5.80;71.10
9971;DHT22;5026;51.494;11.974;2023-04-03T11:01:29;6.20;72.30
9971;DHT22;5026;51.494;11.974;2023-04-03T11:03:59;6.40;71.20
9971;DHT22;5026;51.494;11.974;2023-04-03T11:06:31;5.00;70.80
9971;DHT22;5026;51.494;11.974;2023-04-03T11:09:03;5.00;72.50
9971;DHT22;5026;51.494;11.974;2023-04-03T11:11:35;5.10;72.40
9971;DHT22;5026;51.494;11.974;2023-04-03T11:14:04;5.60;71.70
9971;DHT22;5026;51.494;11.974;2023-04-03T11:16:39;5.70;70.00
9971;DHT22;5026;51.494;11.974;2023-04-03T11:19:13;6.00;69.50
9971;DHT22;5026;51.494;11.974;2023-04-03T11:21:51;5.70;69.30
9971;DHT22;5026;51.494;11.974;2023-04-03T11:24:24;6.00;69.10
9971;DHT22;5026;51.494;11.974;2023-04-03T11:26:53;5.60;69.80
9971;DHT22;5026;51.494;11.974;2023-04-03T11:29:24;5.50;70.10
9971;DHT22;5026;51.494;11.974;2023-04-03T11:32:09;5.20;69.80
9971;DHT22;5026;51.494;11.974;2023-04-03T11:34:41;5.10;70.30
9971;DHT22;5026;51.494;11.974;2023-04-03T11:37:15;5.30;70.10
9971;DHT22;5026;51.494;11.974;2023-04-03T11:39:51;5.40;69.50
9971;DHT22;5026;51.494;11.974;2023-04-03T11:42:29;5.70;69.30
9971;DHT22;5026;51.494;11.974;2023-04-03T11:45:28;5.80;68.90
9971;DHT22;5026;51.494;11.974;2023-04-03T11:47:59;6.30;67.90
9971;DHT22;5026;51.494;11.974;2023-04-03T11:50:41;6.20;67.80
9971;DHT22;5026;51.494;11.974;2023-04-03T11:53:29;5.90;68.50
9971;DHT22;5026;51.494;11.974;2023-04-03T11:56:01;5.80;70.70
9971;DHT22;5026;51.494;11.974;2023-04-03T11:58:30;5.90;70.50
9971;DHT22;5026;51.494;11.974;2023-04-03T12:01:05;6.20;70.40
9971;DHT22;5026;51.494;11.974;2023-04-03T12:07:02;6.70;68.20
9971;DHT22;5026;51.494;11.974;2023-04-03T12:09:57;6.80;67.30
9971;DHT22;5026;51.494;11.974;2023-04-03T12:12:37;8.20;68.30
9971;DHT22;5026;51.494;11.974;2023-04-03T12:15:44;6.40;67.60
9971;DHT22;5026;51.494;11.974;2023-04-03T12:18:57;5.80;68.10
9971;DHT22;5026;51.494;11.974;2023-04-03T12:24:28;6.00;68.90
9971;DHT22;5026;51.494;11.974;2023-04-03T12:27:06;6.10;68.50
9971;DHT22;5026;51.494;11.974;2023-04-03T12:29:39;6.00;69.00
9971;DHT22;5026;51.494;11.974;2023-04-03T12:32:17;6.20;68.30
9971;DHT22;5026;51.494;11.974;2023-04-03T12:34:56;5.60;67.50
9971;DHT22;5026;51.494;11.974;2023-04-03T12:37:43;5.00;67.80
9971;DHT22;5026;51.494;11.974;2023-04-03T12:40:24;5.20;68.80
9971;DHT22;5026;51.494;11.974;2023-04-03T12:43:02;5.40;69.20
9971;DHT22;5026;51.494;11.974;2023-04-03T12:45:41;5.80;66.80
9971;DHT22;5026;51.494;11.974;2023-04-03T12:48:14;6.10;66.20
9971;DHT22;5026;51.494;11.974;2023-04-03T12:50:43;5.60;66.50
9971;DHT22;5026;51.494;11.974;2023-04-03T12:53:14;5.40;66.40
9971;DHT22;5026;51.494;11.974;2023-04-03T12:55:44;5.40;65.20
9971;DHT22;5026;51.494;11.974;2023-04-03T12:58:15;5.70;66.00
9971;DHT22;5026;51.494;11.974;2023-04-03T13:00:43;5.70;66.30
9971;DHT22;5026;51.494;11.974;2023-04-03T13:03:22;5.70;67.10
9971;DHT22;5026;51.494;11.974;2023-04-03T13:05:52;5.80;66.30
9971;DHT22;5026;51.494;11.974;2023-04-03T13:08:20;5.80;66.80
9971;DHT22;5026;51.494;11.974;2023-04-03T13:10:54;6.30;66.40
9971;DHT22;5026;51.494;11.974;2023-04-03T13:13:22;6.20;66.40
9971;DHT22;5026;51.494;11.974;2023-04-03T13:15:50;6.00;66.60
9971;DHT22;5026;51.494;11.974;2023-04-03T13:18:26;5.80;66.90
9971;DHT22;5026;51.494;11.974;2023-04-03T13:20:57;5.90;67.30
9971;DHT22;5026;51.494;11.974;2023-04-03T13:23:26;5.80;68.30
9971;DHT22;5026;51.494;11.974;2023-04-03T13:25:55;6.20;68.30
9971;DHT22;5026;51.494;11.974;2023-04-03T13:28:26;6.20;68.20
9971;DHT22;5026;51.494;11.974;2023-04-03T13:31:00;6.10;68.80
9971;DHT22;5026;51.494;11.974;2023-04-03T13:33:30;6.50;69.40
9971;DHT22;5026;51.494;11.974;2023-04-03T13:36:03;6.30;68.40
9971;DHT22;5026;51.494;11.974;2023-04-03T13:38:32;6.40;68.30
9971;DHT22;5026;51.494;11.974;2023-04-03T13:41:05;6.30;67.90
9971;DHT22;5026;51.494;11.974;2023-04-03T13:43:47;6.80;67.80
9971;DHT22;5026;51.494;11.974;2023-04-03T13:46:25;6.80;67.70
9971;DHT22;5026;51.494;11.974;2023-04-03T13:48:55;6.20;65.50
9971;DHT22;5026;51.494;11.974;2023-04-03T13:51:24;6.40;65.90
9971;DHT22;5026;51.494;11.974;2023-04-03T13:53:55;5.90;65.60
9971;DHT22;5026;51.494;11.974;2023-04-03T13:56:29;5.60;66.40
9971;DHT22;5026;51.494;11.974;2023-04-03T13:59:04;5.70;66.40
9971;DHT22;5026;51.494;11.974;2023-04-03T14:01:45;5.80;67.00
9971;DHT22;5026;51.494;11.974;2023-04-03T14:04:17;6.20;67.10
9971;DHT22;5026;51.494;11.974;2023-04-03T14:06:45;6.20;67.10
9971;DHT22;5026;51.494;11.974;2023-04-03T14:09:13;5.90;67.00
9971;DHT22;5026;51.494;11.974;2023-04-03T14:11:42;6.10;67.20
9971;DHT22;5026;51.494;11.974;2023-04-03T14:14:14;6.30;67.60
9971;DHT22;5026;51.494;11.974;2023-04-03T14:16:44;6.10;66.90
9971;DHT22;5026;51.494;11.974;2023-04-03T14:19:19;6.00;66.80
9971;DHT22;5026;51.494;11.974;2023-04-03T14:21:47;5.80;67.00
9971;DHT22;5026;51.494;11.974;2023-04-03T14:24:16;5.50;66.80
9971;DHT22;5026;51.494;11.974;2023-04-03T14:26:45;5.30;67.10
9971;DHT22;5026;51.494;11.974;2023-04-03T14:29:13;5.60;67.00
9971;DHT22;5026;51.494;11.974;2023-04-03T14:31:41;5.40;67.10
9971;DHT22;5026;51.494;11.974;2023-04-03T14:34:09;5.60;67.40
9971;DHT22;5026;51.494;11.974;2023-04-03T14:36:37;5.60;67.20
9971;DHT22;5026;51.494;11.974;2023-04-03T14:39:06;5.30;66.40
9971;DHT22;5026;51.494;11.974;2023-04-03T14:41:34;5.40;66.50
9971;DHT22;5026;51.494;11.974;2023-04-03T14:44:03;5.40;66.60
9971;DHT22;5026;51.494;11.974;2023-04-03T14:46:32;5.30;67.20
9971;DHT22;5026;51.494;11.974;2023-04-03T14:48:59;5.50;65.80
9971;DHT22;5026;51.494;11.974;2023-04-03T14:51:26;6.10;65.90
9971;DHT22;5026;51.494;11.974;2023-04-03T14:53:53;5.20;66.00
9971;DHT22;5026;51.494;11.974;2023-04-03T14:56:24;5.20;66.40
9971;DHT22;5026;51.494;11.974;2023-04-03T14:58:56;5.20;66.50
9971;DHT22;5026;51.494;11.974;2023-04-03T15:01:25;5.30;67.10
9971;DHT22;5026;51.494;11.974;2023-04-03T15:03:52;5.30;67.50
9971;DHT22;5026;51.494;11.974;2023-04-03T15:06:19;5.50;67.50
9971;DHT22;5026;51.494;11.974;2023-04-03T15:08:47;5.60;66.90
9971;DHT22;5026;51.494;11.974;2023-04-03T15:11:14;5.50;66.70
9971;DHT22;5026;51.494;11.974;2023-04-03T15:13:41;5.30;66.80
9971;DHT22;5026;51.494;11.974;2023-04-03T15:16:14;5.30;66.90
9971;DHT22;5026;51.494;11.974;2023-04-03T15:18:43;5.30;67.50
9971;DHT22;5026;51.494;11.974;2023-04-03T15:21:11;5.20;68.00
9971;DHT22;5026;51.494;11.974;2023-04-03T15:23:38;5.10;67.20
9971;DHT22;5026;51.494;11.974;2023-04-03T15:26:05;5.10;67.40
9971;DHT22;5026;51.494;11.974;2023-04-03T15:28:35;5.30;65.80
9971;DHT22;5026;51.494;11.974;2023-04-03T15:31:02;5.30;66.40
9971;DHT22;5026;51.494;11.974;2023-04-03T15:33:30;5.00;66.20
9971;DHT22;5026;51.494;11.974;2023-04-03T15:35:58;4.90;66.80
9971;DHT22;5026;51.494;11.974;2023-04-03T15:38:25;5.00;66.30
9971;DHT22;5026;51.494;11.974;2023-04-03T15:40:53;5.00;66.70
9971;DHT22;5026;51.494;11.974;2023-04-03T15:43:21;5.20;67.00
9971;DHT22;5026;51.494;11.974;2023-04-03T15:45:49;5.20;66.90
9971;DHT22;5026;51.494;11.974;2023-04-03T15:48:16;5.30;67.00
9971;DHT22;5026;51.494;11.974;2023-04-03T15:50:44;5.30;67.30
9971;DHT22;5026;51.494;11.974;2023-04-03T15:53:12;4.90;68.50
9971;DHT22;5026;51.494;11.974;2023-04-03T15:55:39;4.80;69.20
9971;DHT22;5026;51.494;11.974;2023-04-03T15:58:07;4.80;69.40
9971;DHT22;5026;51.494;11.974;2023-04-03T16:00:35;4.90;69.60
9971;DHT22;5026;51.494;11.974;2023-04-03T16:03:05;4.90;68.70
9971;DHT22;5026;51.494;11.974;2023-04-03T16:05:32;4.90;69.10
9971;DHT22;5026;51.494;11.974;2023-04-03T16:08:01;4.90;68.90
9971;DHT22;5026;51.494;11.974;2023-04-03T16:10:30;5.00;69.50
9971;DHT22;5026;51.494;11.974;2023-04-03T16:12:57;4.90;69.50
9971;DHT22;5026;51.494;11.974;2023-04-03T16:15:25;4.80;69.00
9971;DHT22;5026;51.494;11.974;2023-04-03T16:17:53;4.80;69.30
9971;DHT22;5026;51.494;11.974;2023-04-03T16:20:20;4.70;67.10
9971;DHT22;5026;51.494;11.974;2023-04-03T16:22:48;4.90;67.50